createdAt,value
2022-08-07T00:00:18.646Z,7.296296
2022-08-07T00:05:17.544Z,7.277778
2022-08-07T00:10:25.868Z,7.224537
2022-08-07T00:15:17.615Z,7.185185
2022-08-07T00:20:29.592Z,7.168981
2022-08-07T00:25:17.531Z,7.131944
2022-08-07T00:30:21.568Z,7.057870
2022-08-07T00:35:17.538Z,7.002315
2022-08-07T00:40:17.609Z,6.962963
2022-08-07T00:45:17.947Z,6.928241
2022-08-07T00:50:33.111Z,6.837963
2022-08-07T00:55:25.472Z,6.817130
2022-08-07T01:00:17.618Z,6.738426
2022-08-07T01:05:19.268Z,6.694444
2022-08-07T01:10:18.325Z,6.722222
2022-08-07T01:15:17.894Z,6.636574
2022-08-07T01:20:17.569Z,6.539352
2022-08-07T01:25:53.779Z,6.516204
2022-08-07T01:30:18.970Z,6.493056
2022-08-07T01:35:17.533Z,6.476852
2022-08-07T01:40:17.533Z,6.453333
2022-08-07T01:45:18.528Z,6.342593
2022-08-07T01:50:28.663Z,6.273148
2022-08-07T01:55:22.168Z,6.215278
2022-08-07T02:00:17.515Z,6.133333
2022-08-07T02:05:48.349Z,6.071759
2022-08-07T02:10:17.477Z,6.120370
2022-08-07T02:15:17.765Z,6.097222
2022-08-07T02:20:19.857Z,6.087963
2022-08-07T02:25:18.362Z,6.060185
2022-08-07T02:30:17.522Z,6.023148
2022-08-07T02:35:20.416Z,5.935185
2022-08-07T02:36:29.026Z,5.935185
2022-08-07T02:40:30.948Z,5.828704
2022-08-07T02:45:58.333Z,5.819444
2022-08-07T02:50:18.548Z,5.777778
2022-08-07T02:55:28.501Z,5.837963
2022-08-07T03:00:18.272Z,5.789352
2022-08-07T03:05:20.700Z,5.691111
2022-08-07T03:10:17.704Z,5.626667
2022-08-07T03:15:30.386Z,5.613426
2022-08-07T03:20:17.513Z,5.581019
2022-08-07T03:25:17.511Z,5.594907
2022-08-07T03:30:17.648Z,5.543981
2022-08-07T03:35:26.012Z,5.493056
2022-08-07T03:40:17.537Z,5.523148
2022-08-07T03:45:29.935Z,5.488426
2022-08-07T03:50:17.447Z,5.467593
2022-08-07T03:55:17.468Z,5.530093
2022-08-07T04:00:17.817Z,5.555556
2022-08-07T04:05:17.463Z,5.566667
2022-08-07T04:10:19.395Z,5.539352
2022-08-07T04:15:17.584Z,5.562500
2022-08-07T04:20:17.488Z,5.699074
2022-08-07T04:25:17.606Z,5.858796
2022-08-07T04:30:36.061Z,5.981481
2022-08-07T04:35:17.456Z,6.152778
2022-08-07T04:40:17.866Z,6.462963
2022-08-07T04:45:22.428Z,6.824074
2022-08-07T04:50:17.714Z,7.118056
2022-08-07T04:58:07.388Z,7.585648
2022-08-07T04:58:12.228Z,7.585648
2022-08-07T04:58:12.864Z,7.585648
2022-08-07T05:00:24.304Z,7.960648
2022-08-07T05:05:52.914Z,8.386574
2022-08-07T05:10:17.439Z,8.717593
2022-08-07T05:15:23.289Z,8.974537
2022-08-07T05:20:17.635Z,9.312500
2022-08-07T05:25:25.688Z,9.648148
2022-08-07T05:30:29.993Z,10.108796
2022-08-07T05:35:22.167Z,10.506944
2022-08-07T05:40:20.603Z,10.851852
2022-08-07T05:45:47.118Z,11.162037
2022-08-07T05:50:17.392Z,11.379630
2022-08-07T05:55:17.429Z,11.798611
2022-08-07T06:00:17.867Z,12.131944
2022-08-07T06:05:17.466Z,12.405093
2022-08-07T06:10:17.631Z,12.791111
2022-08-07T06:15:19.717Z,13.146667
2022-08-07T06:20:25.697Z,13.372685
2022-08-07T06:25:17.643Z,13.902222
2022-08-07T06:30:32.321Z,14.248889
2022-08-07T06:35:18.212Z,14.597222
2022-08-07T06:40:21.183Z,14.960648
2022-08-07T06:45:18.339Z,15.351852
2022-08-07T06:50:18.918Z,15.761574
2022-08-07T06:55:32.250Z,16.030093
2022-08-07T07:00:18.093Z,16.354167
2022-08-07T07:06:02.682Z,16.763889
2022-08-07T07:10:17.415Z,17.006944
2022-08-07T07:15:26.213Z,17.157407
2022-08-07T07:20:17.371Z,17.759259
2022-08-07T07:26:32.564Z,18.446759
2022-08-07T07:26:33.289Z,18.446759
2022-08-07T07:30:32.726Z,18.993056
2022-08-07T07:35:17.421Z,18.995370
2022-08-07T07:40:17.470Z,19.236111
2022-08-07T07:45:17.530Z,19.738426
2022-08-07T07:50:34.944Z,19.909722
2022-08-07T07:55:17.483Z,20.458333
2022-08-07T08:00:28.909Z,20.696759
2022-08-07T08:05:17.454Z,20.842593
2022-08-07T08:10:35.568Z,21.335648
2022-08-07T08:15:17.407Z,21.331019
2022-08-07T08:20:23.697Z,21.627315
2022-08-07T08:25:24.980Z,21.479167
2022-08-07T08:30:19.702Z,21.590278
2022-08-07T08:35:17.761Z,21.976852
2022-08-07T08:40:23.416Z,22.046296
2022-08-07T08:45:17.437Z,22.222222
2022-08-07T08:50:35.144Z,21.488426
2022-08-07T08:55:21.279Z,21.416667
2022-08-07T09:00:17.522Z,22.317778
2022-08-07T09:05:17.640Z,22.557870
2022-08-07T09:10:17.885Z,21.851852
2022-08-07T09:16:20.667Z,22.152778
2022-08-07T09:16:29.907Z,22.152778
2022-08-07T09:20:34.686Z,22.467593
2022-08-07T09:25:18.280Z,22.662037
2022-08-07T09:30:17.382Z,22.386574
2022-08-07T09:36:04.301Z,22.157407
2022-08-07T09:40:17.788Z,22.543981
2022-08-07T09:47:24.875Z,22.872685
2022-08-07T09:47:52.709Z,22.872685
2022-08-07T09:48:00.423Z,22.872685
2022-08-07T09:50:19.658Z,22.743056
2022-08-07T09:55:29.673Z,22.039352
2022-08-07T10:00:18.824Z,22.398148
2022-08-07T10:05:17.439Z,23.164352
2022-08-07T10:10:21.689Z,23.210648
2022-08-07T10:15:18.573Z,23.303241
2022-08-07T10:20:21.991Z,23.071759
2022-08-07T10:25:22.898Z,23.148148
2022-08-07T10:30:17.479Z,23.097222
2022-08-07T10:35:20.399Z,23.412037
2022-08-07T10:40:18.046Z,23.548611
2022-08-07T10:45:17.847Z,23.518519
2022-08-07T10:50:18.883Z,23.386574
2022-08-07T10:55:26.926Z,23.770833
2022-08-07T11:00:37.009Z,23.973333
2022-08-07T11:05:17.333Z,24.155556
2022-08-07T11:10:17.477Z,23.983796
2022-08-07T11:15:17.838Z,24.039352
2022-08-07T11:20:17.567Z,24.057870
2022-08-07T11:25:17.429Z,24.027778
2022-08-07T11:30:18.201Z,24.231481
2022-08-07T11:35:17.414Z,24.175926
2022-08-07T11:40:19.173Z,23.870370
2022-08-07T11:45:20.429Z,24.199074
2022-08-07T11:50:31.072Z,24.627315
2022-08-07T11:56:08.546Z,24.960648
2022-08-07T11:56:26.818Z,24.960648
2022-08-07T12:00:19.722Z,24.620370
2022-08-07T12:05:28.537Z,23.942222
2022-08-07T12:10:17.329Z,23.981481
2022-08-07T12:15:45.982Z,24.444444
2022-08-07T12:20:30.338Z,24.974537
2022-08-07T12:25:17.944Z,24.740741
2022-08-07T12:30:17.428Z,24.407407
2022-08-07T12:35:17.751Z,24.875000
2022-08-07T12:40:43.693Z,25.270833
2022-08-07T12:45:17.672Z,24.888889
2022-08-07T12:50:39.053Z,25.349537
2022-08-07T12:55:17.984Z,25.212963
2022-08-07T13:00:30.982Z,24.826389
2022-08-07T13:06:03.198Z,25.263889
2022-08-07T13:10:38.192Z,24.858796
2022-08-07T13:15:23.456Z,25.009259
2022-08-07T13:20:17.732Z,25.319444
2022-08-07T13:25:28.786Z,25.143519
2022-08-07T13:30:19.091Z,24.921296
2022-08-07T13:35:21.373Z,24.912037
2022-08-07T13:40:36.403Z,24.946759
2022-08-07T13:46:10.797Z,24.668981
2022-08-07T13:46:28.891Z,24.668981
2022-08-07T13:50:35.582Z,25.090278
2022-08-07T13:55:19.285Z,25.319444
2022-08-07T14:00:26.135Z,25.245370
2022-08-07T14:05:17.497Z,25.488426
2022-08-07T14:10:24.521Z,25.481481
2022-08-07T14:15:18.536Z,25.337778
2022-08-07T14:20:42.554Z,25.567130
2022-08-07T14:25:17.380Z,25.645833
2022-08-07T14:30:27.697Z,25.150463
2022-08-07T14:35:44.596Z,25.319444
2022-08-07T14:40:26.691Z,25.608796
2022-08-07T14:45:21.414Z,25.595556
2022-08-07T14:50:17.607Z,25.439815
2022-08-07T14:55:17.906Z,25.476852
2022-08-07T15:00:20.792Z,25.270833
2022-08-07T15:06:22.594Z,25.465278
2022-08-07T15:10:17.590Z,25.440000
2022-08-07T15:16:33.943Z,24.990741
2022-08-07T15:20:33.999Z,25.037037
2022-08-07T15:25:19.463Z,25.229167
2022-08-07T15:30:17.298Z,25.222222
2022-08-07T15:35:17.372Z,25.085648
2022-08-07T15:40:34.633Z,25.006944
2022-08-07T15:46:34.319Z,24.993056
2022-08-07T15:50:38.024Z,25.111111
2022-08-07T15:55:17.285Z,24.833333
2022-08-07T16:00:31.079Z,24.858796
2022-08-07T16:05:17.597Z,24.627315
2022-08-07T16:10:17.291Z,24.585648
2022-08-07T16:15:55.244Z,24.368056
2022-08-07T16:20:33.362Z,24.043981
2022-08-07T16:25:23.369Z,24.025463
2022-08-07T16:30:30.723Z,23.997685
2022-08-07T16:35:56.777Z,23.594907
2022-08-07T16:40:28.884Z,23.694444
2022-08-07T16:46:47.196Z,23.925926
2022-08-07T16:47:07.766Z,23.925926
2022-08-07T16:50:35.925Z,23.865741
2022-08-07T16:55:17.395Z,23.798611
2022-08-07T17:00:17.254Z,23.513889
2022-08-07T17:06:02.275Z,22.918981
2022-08-07T17:06:31.499Z,22.918981
2022-08-07T17:10:32.889Z,22.615741
2022-08-07T17:15:17.358Z,22.787037
2022-08-07T17:20:20.816Z,22.840278
2022-08-07T17:25:17.577Z,22.437500
2022-08-07T17:30:20.258Z,22.048611
2022-08-07T17:35:51.077Z,22.037037
2022-08-07T17:40:17.376Z,21.797778
2022-08-07T17:45:17.368Z,21.567130
2022-08-07T17:50:19.487Z,21.171296
2022-08-07T17:56:01.065Z,20.474537
2022-08-07T18:00:27.524Z,19.766204
2022-08-07T18:05:21.539Z,19.335648
2022-08-07T18:10:32.839Z,18.768519
2022-08-07T18:15:17.609Z,18.314815
2022-08-07T18:21:08.667Z,17.763889
2022-08-07T18:21:37.319Z,17.763889
2022-08-07T18:25:19.533Z,17.382222
2022-08-07T18:30:32.427Z,17.053241
2022-08-07T18:35:17.270Z,16.754630
2022-08-07T18:40:18.188Z,16.287037
2022-08-07T18:45:44.210Z,16.053333
2022-08-07T18:46:25.457Z,16.053333
2022-08-07T18:50:38.084Z,15.835648
2022-08-07T18:55:42.422Z,15.590278
2022-08-07T19:00:34.116Z,15.449074
2022-08-07T19:05:17.192Z,14.858796
2022-08-07T19:10:18.525Z,14.361111
2022-08-07T19:16:03.490Z,14.078704
2022-08-07T19:20:28.953Z,13.990741
2022-08-07T19:26:22.808Z,13.648148
2022-08-07T19:26:29.046Z,13.648148
2022-08-07T19:30:57.101Z,13.344907
2022-08-07T19:31:39.613Z,13.344907
2022-08-07T19:35:17.255Z,13.108889
2022-08-07T19:40:17.376Z,12.905093
2022-08-07T19:46:05.942Z,12.740741
2022-08-07T19:50:45.164Z,12.446759
2022-08-07T19:55:17.273Z,12.212963
2022-08-07T20:00:28.603Z,12.055556
2022-08-07T20:05:17.203Z,11.979167
2022-08-07T20:10:36.245Z,11.828889
2022-08-07T20:15:21.989Z,11.696759
2022-08-07T20:20:17.329Z,11.629630
2022-08-07T20:25:20.392Z,11.717593
2022-08-07T20:30:22.591Z,11.590278
2022-08-07T20:35:20.592Z,11.493056
2022-08-07T20:40:32.454Z,11.261574
2022-08-07T20:45:33.492Z,11.113426
2022-08-07T20:46:25.873Z,11.113426
2022-08-07T20:50:17.323Z,10.953704
2022-08-07T20:55:17.241Z,10.851852
2022-08-07T21:00:17.200Z,10.726852
2022-08-07T21:05:17.644Z,10.775463
2022-08-07T21:10:17.170Z,10.692130
2022-08-07T21:15:18.661Z,10.479167
2022-08-07T21:20:29.396Z,10.405093
2022-08-07T21:25:17.750Z,10.295556
2022-08-07T21:30:17.187Z,10.226852
2022-08-07T21:35:17.206Z,10.175926
2022-08-07T21:40:17.410Z,10.071759
2022-08-07T21:46:09.279Z,9.960648
2022-08-07T21:50:17.210Z,9.907407
2022-08-07T21:55:27.838Z,9.833333
2022-08-07T22:00:22.213Z,9.849537
2022-08-07T22:05:21.640Z,9.849537
2022-08-07T22:10:17.173Z,9.826389
2022-08-07T22:16:39.548Z,9.692130
2022-08-07T22:16:43.509Z,9.692130
2022-08-07T22:20:23.691Z,9.571759
2022-08-07T22:25:17.378Z,9.502315
2022-08-07T22:30:17.248Z,9.388889
2022-08-07T22:35:17.414Z,9.333333
2022-08-07T22:40:17.230Z,9.273148
2022-08-07T22:46:04.586Z,9.182870
2022-08-07T22:47:02.152Z,9.182870
2022-08-07T22:50:20.833Z,9.143519
2022-08-07T22:55:22.835Z,9.023148
2022-08-07T23:00:17.218Z,8.946759
2022-08-07T23:06:07.182Z,8.958333
2022-08-07T23:10:38.430Z,9.024444
2022-08-07T23:16:04.564Z,8.900463
2022-08-07T23:20:17.177Z,8.851852
2022-08-07T23:25:17.411Z,8.756944
2022-08-07T23:30:37.935Z,8.657407
2022-08-07T23:35:17.178Z,8.606481
2022-08-07T23:40:17.230Z,8.755556
2022-08-07T23:46:01.432Z,8.671296
2022-08-07T23:50:17.240Z,8.671296
2022-08-07T23:55:52.141Z,8.634259
